MMGLMMMM

Guest
Details From MMGL - Don Miguel Hidalgo Y Costilla Intl
To MMMM - General Francisco J Mujica Intl
Flight Number -
Tags Generated
Created
Modified
Stats Distance 134 nm / 249 km
Max Altitude 0 ft / 0 m
Waypoints 2
Social Downloads 1
Likes 0
Share VATSIM

Download

Looking for another format? Having issues loading an existing format? Contact us
Advertisement - Login to hide

Notes

Generated

Route

MMGL MMMM

ID Type Via Altitude Latitude Longitude Leg Dist Tot Dist Heading (true) Name
O MMGL APT - 0 ft / 0 m 20.52062˚ -103.31188˚ - 0 nm - Don Miguel Hidalgo Y Costilla Intl
O MMMM APT - 0 ft / 0 m 19.84162˚ -101.03851˚ 134 nm 134 nm 107° / 108° -

Altitude Profile

Advertisement - Login to hide

MMGL

Details ICAO MMGL (GDL)
Name Don Miguel Hidalgo Y Costilla Intl
Region Mexico
Timezone America/Mexico_City (UTC-5.0)
Stats Elevation 5,016 ft / 1,529 m (AMSL)
Location 20.524575° -103.308825°
Runways 2
Magnetic Variation 6.202° E

METAR

MMGL 250447Z 20008KT 10SM SKC 24/11 A3016

Decode

TAF

TAF MMGL 242304Z 2500/2606 24005KT P6SM SCT030 TX34/2522Z TN15/2513Z FM250600 26005KT P6SM SKC FM251200 32005KT P6SM SKC FM251800 32010KT P6SM SCT030 TEMPO 2522/2602 BKN030

Decode

Departure Runways

ID Width Length Bearing (true) Bearing (mag) Surface Threshold Offset Overrun Length
02 94 ft / 29 m 6,031 ft / 1,838 m 30.09° 23.89° Asphalt 0 ft / 0 m 0 ft / 0 m
10 197 ft / 60 m 13,151 ft / 4,008 m 114.12° 107.92° Concrete 0 ft / 0 m 197 ft / 60 m
20 94 ft / 29 m 6,031 ft / 1,838 m 210.10° 203.90° Asphalt 0 ft / 0 m 0 ft / 0 m
28 197 ft / 60 m 13,151 ft / 4,008 m 294.14° 287.94° Concrete 0 ft / 0 m 197 ft / 60 m

MMMM

Details ICAO MMMM (MLM)
Name GENERAL FRANCISCO J MUJICA INTL
Region Mexico
Timezone America/Mexico_City (UTC-5.0)
Stats Elevation 6,033 ft / 1,839 m (AMSL)
Location 19.850494° -101.025263°
Runways 1
Magnetic Variation 5.368° E

METAR

Not found

TAF

TAF AMD MMMM 242330Z 2423/2524 04010KT P6SM -RA SCT040CB BKN100 TEMPO 2423/2502 5SM TSRA BKN040CB FM250300 12005KT 5SM HZ SCT080 FM251000 00000KT 5SM HZ SCT020 TEMPO 2522/2524 BKN040

Decode

Destination Runways

ID Width Length Bearing (true) Bearing (mag) Surface Threshold Offset Overrun Length
05 148 ft / 45 m 11,164 ft / 3,403 m 54.53° 49.16° Asphalt 0 ft / 0 m 190 ft / 58 m
23 148 ft / 45 m 11,164 ft / 3,403 m 234.54° 229.17° Asphalt 0 ft / 0 m 190 ft / 58 m

Popular Alternatives